createdAt,value
2023-12-20T00:02:12.326Z,1.58
2023-12-20T00:04:39.041Z,1.70
2023-12-20T00:07:05.766Z,2.00
2023-12-20T00:09:32.528Z,1.38
2023-12-20T00:11:59.236Z,1.58
2023-12-20T00:14:25.937Z,1.25
2023-12-20T00:16:52.786Z,2.10
2023-12-20T00:19:19.573Z,1.95
2023-12-20T00:21:46.308Z,1.95
2023-12-20T00:24:12.986Z,1.67
2023-12-20T00:26:39.626Z,1.50
2023-12-20T00:29:06.225Z,1.35
2023-12-20T00:31:32.950Z,1.50
2023-12-20T00:33:59.755Z,1.55
2023-12-20T00:36:26.447Z,1.27
2023-12-20T00:38:53.149Z,1.70
2023-12-20T00:41:19.877Z,1.40
2023-12-20T00:43:46.553Z,1.17
2023-12-20T00:46:13.360Z,1.40
2023-12-20T00:48:40.143Z,1.38
2023-12-20T00:51:07.397Z,1.00
2023-12-20T00:53:33.975Z,1.40
2023-12-20T00:56:00.620Z,1.13
2023-12-20T00:58:29.160Z,1.13
2023-12-20T01:00:55.915Z,1.13
2023-12-20T01:03:22.659Z,1.00
2023-12-20T01:05:49.499Z,1.10
2023-12-20T01:08:16.228Z,1.00
2023-12-20T01:10:42.926Z,0.82
2023-12-20T01:13:10.111Z,0.90
2023-12-20T01:15:36.788Z,0.90
2023-12-20T01:18:03.777Z,0.77
2023-12-20T01:20:30.383Z,0.80
2023-12-20T01:22:56.963Z,0.95
2023-12-20T01:25:23.984Z,0.77
2023-12-20T01:27:51.273Z,0.90
2023-12-20T01:30:18.006Z,0.80
2023-12-20T01:32:44.750Z,0.95
2023-12-20T01:35:13.615Z,0.90
2023-12-20T01:37:40.307Z,0.65
2023-12-20T01:40:07.588Z,0.73
2023-12-20T01:42:34.232Z,1.00
2023-12-20T01:45:00.864Z,0.80
2023-12-20T01:47:28.354Z,0.80
2023-12-20T01:49:57.461Z,0.63
2023-12-20T01:52:24.875Z,0.70
2023-12-20T01:54:51.982Z,1.13
2023-12-20T01:57:18.780Z,0.50
2023-12-20T01:59:45.904Z,0.95
2023-12-20T02:02:13.794Z,0.73
2023-12-20T02:04:40.688Z,0.82
2023-12-20T02:07:08.639Z,0.75
2023-12-20T02:09:36.117Z,0.77
2023-12-20T02:12:02.816Z,0.85
2023-12-20T02:14:29.448Z,0.50
2023-12-20T02:16:56.390Z,0.55
2023-12-20T02:19:23.221Z,0.57
2023-12-20T02:21:50.047Z,0.40
2023-12-20T02:24:18.576Z,0.63
2023-12-20T02:26:47.175Z,0.63
2023-12-20T02:29:14.095Z,0.57
2023-12-20T02:31:40.779Z,0.40
2023-12-20T02:34:07.596Z,0.50
2023-12-20T02:36:34.263Z,0.63
2023-12-20T02:39:00.826Z,0.32
2023-12-20T02:41:27.438Z,0.50
2023-12-20T02:43:54.030Z,0.50
2023-12-20T02:46:20.892Z,0.50
2023-12-20T02:48:48.798Z,0.47
2023-12-20T02:51:15.641Z,0.73
2023-12-20T02:53:42.262Z,0.50
2023-12-20T02:56:08.924Z,0.32
2023-12-20T02:58:35.586Z,0.50
2023-12-20T03:01:02.274Z,0.40
2023-12-20T03:03:28.918Z,0.47
2023-12-20T03:05:55.549Z,0.65
2023-12-20T03:08:22.159Z,0.43
2023-12-20T03:10:49.006Z,0.50
2023-12-20T03:13:15.764Z,0.22
2023-12-20T03:15:42.519Z,0.30
2023-12-20T03:18:09.212Z,0.30
2023-12-20T03:20:36.040Z,0.32
2023-12-20T03:23:02.740Z,0.38
2023-12-20T03:25:29.394Z,0.32
2023-12-20T03:27:56.331Z,0.50
2023-12-20T03:30:22.947Z,0.28
2023-12-20T03:32:49.614Z,0.40
2023-12-20T03:35:16.310Z,0.30
2023-12-20T03:37:43.116Z,0.40
2023-12-20T03:40:10.414Z,0.50
2023-12-20T03:42:37.088Z,0.30
2023-12-20T03:45:03.796Z,0.50
2023-12-20T03:47:30.440Z,0.40
2023-12-20T03:49:57.123Z,0.40
2023-12-20T03:52:23.876Z,0.65
2023-12-20T03:54:50.672Z,0.30
2023-12-20T03:57:17.321Z,0.50
2023-12-20T03:59:43.927Z,0.40
2023-12-20T04:02:10.511Z,0.10
2023-12-20T04:04:37.204Z,0.40
2023-12-20T04:07:04.181Z,0.40
2023-12-20T04:09:30.951Z,0.30
2023-12-20T04:11:57.993Z,0.20
2023-12-20T04:14:27.730Z,0.30
2023-12-20T04:16:55.158Z,0.28
2023-12-20T04:19:21.819Z,0.30
2023-12-20T04:21:48.779Z,0.20
2023-12-20T04:24:15.402Z,0.40
2023-12-20T04:26:42.123Z,0.30
2023-12-20T04:29:08.752Z,0.60
2023-12-20T04:31:35.417Z,0.30
2023-12-20T04:34:02.164Z,0.20
2023-12-20T04:36:31.078Z,0.30
2023-12-20T04:38:57.758Z,0.40
2023-12-20T04:41:24.521Z,0.40
2023-12-20T04:43:51.220Z,0.20
2023-12-20T04:46:17.817Z,0.38
2023-12-20T04:48:44.802Z,0.50
2023-12-20T04:51:11.536Z,0.40
2023-12-20T04:53:38.342Z,0.77
2023-12-20T04:56:05.396Z,0.22
2023-12-20T04:58:32.090Z,0.15
2023-12-20T05:00:58.857Z,2.08
2023-12-20T05:03:25.677Z,0.30
2023-12-20T05:05:52.282Z,0.38
2023-12-20T05:08:18.998Z,0.40
2023-12-20T05:10:45.646Z,0.50
2023-12-20T05:13:12.419Z,0.43
2023-12-20T05:15:39.014Z,0.30
2023-12-20T05:18:06.080Z,0.40
2023-12-20T05:20:32.929Z,0.30
2023-12-20T05:22:59.555Z,0.30
2023-12-20T05:25:26.311Z,0.30
2023-12-20T05:27:53.275Z,0.50
2023-12-20T05:30:20.167Z,0.47
2023-12-20T05:32:47.085Z,0.22
2023-12-20T05:35:13.957Z,0.40
2023-12-20T05:37:40.703Z,0.43
2023-12-20T05:40:08.345Z,0.63
2023-12-20T05:42:34.983Z,0.30
2023-12-20T05:45:01.611Z,0.50
2023-12-20T05:47:28.289Z,0.30
2023-12-20T05:49:54.891Z,0.30
2023-12-20T05:52:21.621Z,0.30
2023-12-20T05:54:48.595Z,0.60
2023-12-20T05:57:15.641Z,1.15
2023-12-20T05:59:42.198Z,0.40
2023-12-20T06:02:08.837Z,0.35
2023-12-20T06:04:35.645Z,0.60
2023-12-20T06:07:02.781Z,0.40
2023-12-20T06:09:31.894Z,0.40
2023-12-20T06:11:59.098Z,0.40
2023-12-20T06:14:25.742Z,0.63
2023-12-20T06:16:52.478Z,0.60
2023-12-20T06:19:19.372Z,0.57
2023-12-20T06:21:46.263Z,0.65
2023-12-20T06:24:13.004Z,0.50
2023-12-20T06:26:40.344Z,0.60
2023-12-20T06:29:07.154Z,0.70
2023-12-20T06:31:34.490Z,0.40
2023-12-20T06:34:02.473Z,0.70
2023-12-20T06:36:29.172Z,0.70
2023-12-20T06:38:55.812Z,0.52
2023-12-20T06:41:22.560Z,0.80
2023-12-20T06:43:50.483Z,0.60
2023-12-20T06:46:18.252Z,1.00
2023-12-20T06:48:45.432Z,0.88
2023-12-20T06:51:18.784Z,0.70
2023-12-20T06:53:45.717Z,0.70
2023-12-20T06:56:19.329Z,0.77
2023-12-20T06:58:47.061Z,0.75
2023-12-20T07:01:14.789Z,0.90
2023-12-20T07:03:41.927Z,0.95
2023-12-20T07:06:08.919Z,0.98
2023-12-20T07:08:35.633Z,1.08
2023-12-20T07:11:02.258Z,0.82
2023-12-20T07:13:29.180Z,1.15
2023-12-20T07:15:55.957Z,1.10
2023-12-20T07:18:22.616Z,1.23
2023-12-20T07:20:49.260Z,0.90
2023-12-20T07:23:15.946Z,1.20
2023-12-20T07:25:42.824Z,0.90
2023-12-20T07:28:09.521Z,1.02
2023-12-20T07:30:36.205Z,1.00
2023-12-20T07:33:03.746Z,1.30
2023-12-20T07:35:30.812Z,1.27
2023-12-20T07:37:57.509Z,1.50
2023-12-20T07:40:25.118Z,1.35
2023-12-20T07:42:51.820Z,1.00
2023-12-20T07:45:18.497Z,1.65
2023-12-20T07:47:45.349Z,1.35
2023-12-20T07:50:12.597Z,1.55
2023-12-20T07:52:39.353Z,1.52
2023-12-20T07:55:06.642Z,1.77
2023-12-20T07:57:33.395Z,1.48
2023-12-20T08:00:00.328Z,1.55
2023-12-20T08:02:27.037Z,1.85
2023-12-20T08:04:53.621Z,1.63
2023-12-20T08:07:20.771Z,1.27
2023-12-20T08:09:47.793Z,1.52
2023-12-20T08:12:14.773Z,1.70
2023-12-20T08:14:41.448Z,1.40
2023-12-20T08:17:08.146Z,1.50
2023-12-20T08:19:35.050Z,1.38
2023-12-20T08:22:01.858Z,1.10
2023-12-20T08:24:28.452Z,1.55
2023-12-20T08:26:55.096Z,0.90
2023-12-20T08:29:22.281Z,1.13
2023-12-20T08:31:53.691Z,0.88
2023-12-20T08:34:20.568Z,1.10
2023-12-20T08:36:47.224Z,0.93
2023-12-20T08:39:14.051Z,0.70
2023-12-20T08:41:40.884Z,0.70
2023-12-20T08:44:07.608Z,1.05
2023-12-20T08:46:34.229Z,0.90
2023-12-20T08:49:01.779Z,0.68
2023-12-20T08:51:29.070Z,0.73
2023-12-20T08:53:55.917Z,1.05
2023-12-20T08:56:22.666Z,0.70
2023-12-20T08:58:49.556Z,0.70
2023-12-20T09:01:16.445Z,0.80
2023-12-20T09:03:43.368Z,0.75
2023-12-20T09:06:10.249Z,0.70
2023-12-20T09:08:37.007Z,0.65
2023-12-20T09:11:03.740Z,0.95
2023-12-20T09:13:32.895Z,0.60
2023-12-20T09:15:59.930Z,1.10
2023-12-20T09:18:26.902Z,0.70
2023-12-20T09:20:53.830Z,0.70
2023-12-20T09:23:20.575Z,0.63
2023-12-20T09:25:47.212Z,0.93
2023-12-20T09:28:13.956Z,0.63
2023-12-20T09:30:41.660Z,0.70
2023-12-20T09:33:09.433Z,0.60
2023-12-20T09:35:36.454Z,0.77
2023-12-20T09:38:03.501Z,0.80
2023-12-20T09:40:33.122Z,0.93
2023-12-20T09:43:05.462Z,0.60
2023-12-20T09:45:33.305Z,0.60
2023-12-20T09:48:00.619Z,0.77
2023-12-20T09:50:28.573Z,0.40
2023-12-20T09:53:00.362Z,0.80
2023-12-20T09:55:29.258Z,1.70
2023-12-20T09:57:56.193Z,1.05
2023-12-20T10:00:22.914Z,1.00
2023-12-20T10:03:00.554Z,0.60
2023-12-20T10:05:32.267Z,0.70
2023-12-20T10:08:02.166Z,0.68
2023-12-20T10:10:38.083Z,1.23
2023-12-20T10:13:13.100Z,1.25
2023-12-20T10:15:40.165Z,0.73
2023-12-20T10:18:07.765Z,1.00
2023-12-20T10:20:34.918Z,1.40
2023-12-20T10:23:02.565Z,1.40
2023-12-20T10:25:29.876Z,0.95
2023-12-20T10:28:14.747Z,1.55
2023-12-20T10:30:42.858Z,0.80
2023-12-20T10:33:11.092Z,0.77
2023-12-20T10:35:42.447Z,0.93
2023-12-20T10:38:12.492Z,0.95
2023-12-20T10:40:39.633Z,0.90
2023-12-20T10:43:07.713Z,0.73
2023-12-20T10:45:35.954Z,0.60
2023-12-20T10:48:04.509Z,0.88
2023-12-20T10:50:33.072Z,1.38
2023-12-20T10:53:01.361Z,0.90
2023-12-20T10:55:29.627Z,1.02
2023-12-20T10:58:02.979Z,0.73
2023-12-20T11:00:33.812Z,0.98
2023-12-20T11:03:04.080Z,0.90
2023-12-20T11:05:55.067Z,0.90
2023-12-20T11:08:34.347Z,0.80
2023-12-20T11:11:10.640Z,1.13
2023-12-20T11:13:45.991Z,0.95
2023-12-20T11:16:13.678Z,1.15
2023-12-20T11:18:41.976Z,1.05
2023-12-20T11:21:09.522Z,0.73
2023-12-20T11:23:36.685Z,0.88
2023-12-20T11:26:04.550Z,0.70
2023-12-20T11:28:31.649Z,0.70
2023-12-20T11:31:02.893Z,0.95
2023-12-20T11:33:38.030Z,0.95
2023-12-20T11:36:13.643Z,0.65
2023-12-20T11:38:50.175Z,0.80
2023-12-20T11:41:16.917Z,1.30
2023-12-20T11:43:43.612Z,0.98
2023-12-20T11:46:10.903Z,1.13
2023-12-20T11:48:41.601Z,0.70
2023-12-20T11:51:12.545Z,1.40
2023-12-20T11:53:40.140Z,1.20
2023-12-20T11:56:07.977Z,0.90
2023-12-20T11:58:35.421Z,1.10
2023-12-20T12:01:05.714Z,0.90
2023-12-20T12:03:32.557Z,1.38
2023-12-20T12:05:59.489Z,1.15
2023-12-20T12:08:26.361Z,1.08
2023-12-20T12:10:53.398Z,1.00
2023-12-20T12:13:20.209Z,0.90
2023-12-20T12:15:48.164Z,1.00
2023-12-20T12:18:19.241Z,0.75
2023-12-20T12:20:47.024Z,1.23
2023-12-20T12:23:13.740Z,1.23
2023-12-20T12:25:42.908Z,0.93
2023-12-20T12:28:11.556Z,1.10
2023-12-20T12:30:39.680Z,0.90
2023-12-20T12:33:13.620Z,0.60
2023-12-20T12:35:41.670Z,1.60
2023-12-20T12:38:09.960Z,1.00
2023-12-20T12:40:39.686Z,0.80
2023-12-20T12:43:07.428Z,1.17
2023-12-20T12:45:34.156Z,1.08
2023-12-20T12:48:00.890Z,1.08
2023-12-20T12:50:29.831Z,0.95
2023-12-20T12:52:56.873Z,0.80
2023-12-20T12:55:23.576Z,1.35
2023-12-20T12:57:50.371Z,0.80
2023-12-20T13:00:17.246Z,1.13
2023-12-20T13:02:44.250Z,1.00
2023-12-20T13:05:11.101Z,0.80
2023-12-20T13:07:38.968Z,0.70
2023-12-20T13:10:07.093Z,1.02
2023-12-20T13:12:33.876Z,0.68
2023-12-20T13:15:00.640Z,1.13
2023-12-20T13:17:29.468Z,1.00
2023-12-20T13:19:57.237Z,0.95
2023-12-20T13:22:24.491Z,1.48
2023-12-20T13:24:51.193Z,0.70
2023-12-20T13:27:17.840Z,0.90
2023-12-20T13:29:44.407Z,0.80
2023-12-20T13:32:11.178Z,0.93
2023-12-20T13:34:37.971Z,0.98
2023-12-20T13:37:05.812Z,1.20
2023-12-20T13:39:32.975Z,1.00
2023-12-20T13:42:01.250Z,0.60
2023-12-20T13:44:28.473Z,0.90
2023-12-20T13:46:55.246Z,0.90
2023-12-20T13:49:22.502Z,0.95
2023-12-20T13:51:49.463Z,1.55
2023-12-20T13:54:17.761Z,1.25
2023-12-20T13:56:56.073Z,1.13
2023-12-20T13:59:29.577Z,0.90
2023-12-20T14:01:58.335Z,1.08
2023-12-20T14:04:40.927Z,0.50
2023-12-20T14:07:11.510Z,1.08
2023-12-20T14:09:38.729Z,0.80
2023-12-20T14:12:06.195Z,0.88
2023-12-20T14:14:32.875Z,0.77
2023-12-20T14:16:59.468Z,1.15
2023-12-20T14:19:26.152Z,1.20
2023-12-20T14:21:53.318Z,1.15
2023-12-20T14:24:20.242Z,0.75
2023-12-20T14:26:46.796Z,1.13
2023-12-20T14:29:13.494Z,1.13
2023-12-20T14:31:41.374Z,1.00
2023-12-20T14:34:08.361Z,1.00
2023-12-20T14:36:36.201Z,0.88
2023-12-20T14:39:04.375Z,1.00
2023-12-20T14:41:32.724Z,0.88
2023-12-20T14:44:01.086Z,0.93
2023-12-20T14:46:28.323Z,0.68
2023-12-20T14:48:55.034Z,0.68
2023-12-20T14:51:21.712Z,0.60
2023-12-20T14:53:48.624Z,0.70
2023-12-20T14:56:16.069Z,0.93
2023-12-20T14:58:42.896Z,0.70
2023-12-20T15:01:10.252Z,0.98
2023-12-20T15:06:03.772Z,0.70
2023-12-20T15:08:30.560Z,0.80
2023-12-20T15:10:57.207Z,0.82
2023-12-20T15:13:23.985Z,0.77
2023-12-20T15:15:50.678Z,1.25
2023-12-20T15:18:17.305Z,0.57
2023-12-20T15:20:45.968Z,0.65
2023-12-20T15:23:12.531Z,1.27
2023-12-20T15:25:39.163Z,0.85
2023-12-20T15:28:06.164Z,1.10
2023-12-20T15:30:33.932Z,0.88
2023-12-20T15:33:02.228Z,1.55
2023-12-20T15:35:30.760Z,1.00
2023-12-20T15:37:58.213Z,0.80
2023-12-20T15:40:24.963Z,0.95
2023-12-20T15:42:51.861Z,0.90
2023-12-20T15:45:19.508Z,0.50
2023-12-20T15:47:46.636Z,0.73
2023-12-20T15:50:13.960Z,1.10
2023-12-20T15:52:40.828Z,1.10
2023-12-20T15:55:08.835Z,0.65
2023-12-20T15:57:45.287Z,1.00
2023-12-20T16:00:19.610Z,0.50
2023-12-20T16:02:46.163Z,0.68
2023-12-20T16:05:12.945Z,1.73
2023-12-20T16:07:39.840Z,0.80
2023-12-20T16:10:08.146Z,0.80
2023-12-20T16:12:34.864Z,0.80
2023-12-20T16:15:02.355Z,1.00
2023-12-20T16:17:29.567Z,0.90
2023-12-20T16:19:56.904Z,0.75
2023-12-20T16:22:24.066Z,0.80
2023-12-20T16:24:54.116Z,1.35
2023-12-20T16:27:20.912Z,0.82
2023-12-20T16:29:47.492Z,0.82
2023-12-20T16:32:14.325Z,0.88
2023-12-20T16:34:41.093Z,1.00
2023-12-20T16:37:07.863Z,0.80
2023-12-20T16:39:34.515Z,1.00
2023-12-20T16:42:01.226Z,1.15
2023-12-20T16:44:27.819Z,1.20
2023-12-20T16:46:54.593Z,0.80
2023-12-20T16:49:21.689Z,1.00
2023-12-20T16:51:48.972Z,0.73
2023-12-20T16:54:15.593Z,0.80
2023-12-20T16:56:42.375Z,1.02
2023-12-20T16:59:09.013Z,0.70
2023-12-20T17:01:36.373Z,1.00
2023-12-20T17:04:03.284Z,0.90
2023-12-20T17:06:30.276Z,0.70
2023-12-20T17:08:56.929Z,0.85
2023-12-20T17:11:23.583Z,0.73
2023-12-20T17:13:50.259Z,0.82
2023-12-20T17:16:17.052Z,1.00
2023-12-20T17:18:49.903Z,1.10
2023-12-20T17:21:18.010Z,0.80
2023-12-20T17:23:46.743Z,0.80
2023-12-20T17:26:15.977Z,0.80
2023-12-20T17:28:43.473Z,0.90
2023-12-20T17:31:10.674Z,0.88
2023-12-20T17:33:37.750Z,1.20
2023-12-20T17:36:04.782Z,0.93
2023-12-20T17:38:31.612Z,0.88
2023-12-20T17:40:58.519Z,1.70
2023-12-20T17:43:25.705Z,0.77
2023-12-20T17:45:52.433Z,0.80
2023-12-20T17:48:19.220Z,0.88
2023-12-20T17:50:45.856Z,0.80
2023-12-20T17:53:12.742Z,1.10
2023-12-20T17:55:39.569Z,1.00
2023-12-20T17:58:06.297Z,1.77
2023-12-20T18:00:35.726Z,1.23
2023-12-20T18:03:03.204Z,0.98
2023-12-20T18:05:30.490Z,1.38
2023-12-20T18:07:57.444Z,1.40
2023-12-20T18:10:24.253Z,1.58
2023-12-20T18:12:50.942Z,1.42
2023-12-20T18:15:19.455Z,2.08
2023-12-20T18:17:46.840Z,1.00
2023-12-20T18:20:16.345Z,1.50
2023-12-20T18:22:43.980Z,1.48
2023-12-20T18:25:10.823Z,1.27
2023-12-20T18:27:37.487Z,1.58
2023-12-20T18:30:15.168Z,1.10
2023-12-20T18:32:43.804Z,1.60
2023-12-20T18:35:11.180Z,1.30
2023-12-20T18:37:38.112Z,1.02
2023-12-20T18:40:05.779Z,1.65
2023-12-20T18:42:33.194Z,1.60
2023-12-20T18:45:01.056Z,1.67
2023-12-20T18:47:28.058Z,1.90
2023-12-20T18:49:54.881Z,1.40
2023-12-20T18:52:21.853Z,1.98
2023-12-20T18:54:51.364Z,3.97
2023-12-20T18:57:18.291Z,1.98
2023-12-20T18:59:44.961Z,3.05
2023-12-20T19:02:13.678Z,1.77
2023-12-20T19:04:40.609Z,1.45
2023-12-20T19:07:07.505Z,1.70
2023-12-20T19:09:34.341Z,2.60
2023-12-20T19:12:00.991Z,1.80
2023-12-20T19:14:27.625Z,1.58
2023-12-20T19:16:55.129Z,1.35
2023-12-20T19:19:22.156Z,1.85
2023-12-20T19:21:49.119Z,2.08
2023-12-20T19:24:15.745Z,1.70
2023-12-20T19:26:42.514Z,1.50
2023-12-20T19:29:09.210Z,1.92
2023-12-20T19:31:35.970Z,1.50
2023-12-20T19:34:02.763Z,1.70
2023-12-20T19:36:29.529Z,3.00
2023-12-20T19:38:56.286Z,2.30
2023-12-20T19:41:22.977Z,2.05
2023-12-20T19:43:49.714Z,1.55
2023-12-20T19:46:16.430Z,1.50
2023-12-20T19:48:44.561Z,1.70
2023-12-20T19:51:12.151Z,1.88
2023-12-20T19:53:38.900Z,1.35
2023-12-20T19:56:06.017Z,1.40
2023-12-20T19:58:33.673Z,1.83
2023-12-20T20:01:00.471Z,1.45
2023-12-20T20:03:27.267Z,1.60
2023-12-20T20:05:54.128Z,1.13
2023-12-20T20:08:20.950Z,1.08
2023-12-20T20:10:47.726Z,1.27
2023-12-20T20:13:16.410Z,1.30
2023-12-20T20:15:43.408Z,2.10
2023-12-20T20:18:13.177Z,1.55
2023-12-20T20:20:40.106Z,0.80
2023-12-20T20:23:06.797Z,1.13
2023-12-20T20:25:34.069Z,1.00
2023-12-20T20:28:01.216Z,1.33
2023-12-20T20:30:28.615Z,0.80
2023-12-20T20:32:55.486Z,0.80
2023-12-20T20:35:22.434Z,0.50
2023-12-20T20:37:50.045Z,0.45
2023-12-20T20:40:20.136Z,0.73
2023-12-20T20:42:47.234Z,0.45
2023-12-20T20:45:15.236Z,0.70
2023-12-20T20:47:43.007Z,0.90
2023-12-20T20:50:11.049Z,0.50
2023-12-20T20:52:38.428Z,0.60
2023-12-20T20:55:05.629Z,0.38
2023-12-20T20:57:32.465Z,0.70
2023-12-20T20:59:59.321Z,0.40
2023-12-20T21:02:26.382Z,0.45
2023-12-20T21:04:53.228Z,0.50
2023-12-20T21:07:22.491Z,0.50
2023-12-20T21:09:50.908Z,0.45
2023-12-20T21:12:18.091Z,0.80
2023-12-20T21:14:45.475Z,0.40
2023-12-20T21:17:15.411Z,0.50
2023-12-20T21:19:42.074Z,1.42
2023-12-20T21:22:08.974Z,0.52
2023-12-20T21:24:36.411Z,0.55
2023-12-20T21:27:03.649Z,0.40
2023-12-20T21:29:30.423Z,0.70
2023-12-20T21:31:57.246Z,0.68
2023-12-20T21:34:24.074Z,0.60
2023-12-20T21:36:51.014Z,0.45
2023-12-20T21:39:20.293Z,0.55
2023-12-20T21:41:47.041Z,0.60
2023-12-20T21:44:13.753Z,0.50
2023-12-20T21:46:41.757Z,0.47
2023-12-20T21:49:09.069Z,0.45
2023-12-20T21:51:35.959Z,0.60
2023-12-20T21:54:04.477Z,0.70
2023-12-20T21:56:31.224Z,0.60
2023-12-20T21:58:58.551Z,0.60
2023-12-20T22:01:25.563Z,0.45
2023-12-20T22:03:52.867Z,0.22
2023-12-20T22:06:19.632Z,0.50
2023-12-20T22:08:46.317Z,0.38
2023-12-20T22:11:13.114Z,0.60
2023-12-20T22:13:40.342Z,0.35
2023-12-20T22:16:08.552Z,0.50
2023-12-20T22:18:35.491Z,0.50
2023-12-20T22:21:02.398Z,0.20
2023-12-20T22:23:28.964Z,0.30
2023-12-20T22:25:55.715Z,0.40
2023-12-20T22:28:22.535Z,0.28
2023-12-20T22:30:49.251Z,0.40
2023-12-20T22:33:16.063Z,0.38
2023-12-20T22:35:44.396Z,0.30
2023-12-20T22:38:11.314Z,0.55
2023-12-20T22:40:38.179Z,0.20
2023-12-20T22:43:05.099Z,0.28
2023-12-20T22:45:33.910Z,0.50
2023-12-20T22:48:00.753Z,0.30
2023-12-20T22:50:27.573Z,0.40
2023-12-20T22:52:54.290Z,0.40
2023-12-20T22:55:21.046Z,0.75
2023-12-20T22:57:48.079Z,0.40
2023-12-20T23:00:18.531Z,0.40
2023-12-20T23:02:45.135Z,0.38
2023-12-20T23:05:11.776Z,0.40
2023-12-20T23:07:38.388Z,0.50
2023-12-20T23:10:05.763Z,0.28
2023-12-20T23:12:32.824Z,0.68
2023-12-20T23:14:59.484Z,0.73
2023-12-20T23:17:26.078Z,0.40
2023-12-20T23:19:52.779Z,0.50
2023-12-20T23:22:19.530Z,0.30
2023-12-20T23:24:47.678Z,0.40
2023-12-20T23:27:16.649Z,0.32
2023-12-20T23:29:43.324Z,0.20
2023-12-20T23:32:09.936Z,0.40
2023-12-20T23:34:36.658Z,0.40
2023-12-20T23:37:04.778Z,0.30
2023-12-20T23:39:31.480Z,0.30
2023-12-20T23:41:58.189Z,0.40
2023-12-20T23:44:24.835Z,0.40
2023-12-20T23:46:51.386Z,0.20
2023-12-20T23:49:18.061Z,0.40
2023-12-20T23:51:44.694Z,0.30
2023-12-20T23:54:11.289Z,0.20
2023-12-20T23:56:39.041Z,0.20
2023-12-20T23:59:06.073Z,0.32
